createdAt,value
2018-12-13T00:00:01.991Z,97476.44
2018-12-13T00:02:31.347Z,97470.36
2018-12-13T00:05:00.133Z,97472.91
2018-12-13T00:07:28.954Z,97467.47
2018-12-13T00:09:57.751Z,97470.63
2018-12-13T00:12:26.541Z,97474.23
2018-12-13T00:14:55.353Z,97469.83
2018-12-13T00:17:24.138Z,97470.09
2018-12-13T00:19:53.157Z,97463.48
2018-12-13T00:22:21.948Z,97456.69
2018-12-13T00:24:50.744Z,97461.50
2018-12-13T00:27:19.813Z,97465.96
2018-12-13T00:29:48.614Z,97460.16
2018-12-13T00:32:17.429Z,97460.45
2018-12-13T00:34:46.211Z,97457.53
2018-12-13T00:37:15.415Z,97465.22
2018-12-13T00:39:44.202Z,97457.00
2018-12-13T00:42:12.995Z,97458.06
2018-12-13T00:44:42.197Z,97450.14
2018-12-13T00:47:11.380Z,97457.94
2018-12-13T00:49:40.487Z,97456.05
2018-12-13T00:52:09.273Z,97457.16
2018-12-13T00:54:38.057Z,97464.19
2018-12-13T00:57:06.861Z,97456.93
2018-12-13T00:59:35.667Z,97458.30
2018-12-13T01:02:04.871Z,97458.47
2018-12-13T01:04:33.679Z,97453.23
2018-12-13T01:07:02.487Z,97448.20
2018-12-13T01:09:31.275Z,97451.92
2018-12-13T01:12:00.154Z,97447.63
2018-12-13T01:14:28.925Z,97450.98
2018-12-13T01:16:58.049Z,97446.22
2018-12-13T01:19:26.849Z,97449.91
2018-12-13T01:21:55.645Z,97448.30
2018-12-13T01:24:24.754Z,97454.64
2018-12-13T01:26:53.535Z,97448.53
2018-12-13T01:29:22.353Z,97450.72
2018-12-13T01:31:51.150Z,97449.30
2018-12-13T01:34:20.247Z,97443.27
2018-12-13T01:36:52.393Z,97444.70
2018-12-13T01:39:20.063Z,97440.23
2018-12-13T01:41:49.118Z,97437.45
2018-12-13T01:44:17.929Z,97435.67
2018-12-13T01:46:47.378Z,97439.33
2018-12-13T01:49:16.206Z,97431.17
2018-12-13T01:51:45.015Z,97432.95
2018-12-13T01:54:13.803Z,97433.73
2018-12-13T01:56:43.003Z,97422.31
2018-12-13T01:59:12.157Z,97429.30
2018-12-13T02:01:41.358Z,97418.95
2018-12-13T02:04:10.188Z,97414.63
2018-12-13T02:06:38.989Z,97426.77
2018-12-13T02:09:08.181Z,97420.16
2018-12-13T02:11:37.214Z,97418.59
2018-12-13T02:14:06.474Z,97415.03
2018-12-13T02:16:35.285Z,97417.81
2018-12-13T02:19:04.518Z,97419.28
2018-12-13T02:21:33.767Z,97411.94
2018-12-13T02:24:03.189Z,97415.09
2018-12-13T02:26:32.009Z,97401.66
2018-12-13T02:29:00.812Z,97409.02
2018-12-13T02:31:30.012Z,97404.98
2018-12-13T02:33:58.923Z,97410.12
2018-12-13T02:36:27.934Z,97408.91
2018-12-13T02:38:56.748Z,97406.03
2018-12-13T02:41:25.952Z,97405.25
2018-12-13T02:43:54.968Z,97407.58
2018-12-13T02:46:24.244Z,97402.20
2018-12-13T02:49:05.213Z,97400.16
2018-12-13T02:51:34.291Z,97396.70
2018-12-13T02:54:04.122Z,97388.33
2018-12-13T02:56:32.999Z,97393.70
2018-12-13T02:59:02.592Z,97382.97
2018-12-13T03:01:31.801Z,97389.72
2018-12-13T03:04:01.015Z,97388.10
2018-12-13T03:06:30.701Z,97382.70
2018-12-13T03:08:59.641Z,97384.81
2018-12-13T03:11:28.426Z,97382.06
2018-12-13T03:13:57.237Z,97384.17
2018-12-13T03:16:26.771Z,97371.98
2018-12-13T03:18:55.562Z,97378.89
2018-12-13T03:21:24.425Z,97372.92
2018-12-13T03:23:53.464Z,97377.09
2018-12-13T03:26:22.256Z,97373.73
2018-12-13T03:28:51.047Z,97376.99
2018-12-13T03:31:19.838Z,97369.24
2018-12-13T03:33:48.873Z,97368.60
2018-12-13T03:36:18.082Z,97362.67
2018-12-13T03:38:46.890Z,97357.70
2018-12-13T03:41:15.675Z,97357.20
2018-12-13T03:43:44.469Z,97353.61
2018-12-13T03:46:13.489Z,97357.23
2018-12-13T03:48:42.269Z,97341.33
2018-12-13T03:51:11.065Z,97344.58
2018-12-13T03:53:39.850Z,97341.93
2018-12-13T03:56:08.646Z,97339.08
2018-12-13T03:58:37.718Z,97345.69
2018-12-13T04:01:06.731Z,97338.08
2018-12-13T04:03:35.514Z,97341.63
2018-12-13T04:06:04.643Z,97331.39
2018-12-13T04:08:33.666Z,97334.22
2018-12-13T04:11:02.475Z,97328.28
2018-12-13T04:13:31.502Z,97330.22
2018-12-13T04:16:00.296Z,97327.41
2018-12-13T04:18:29.653Z,97322.20
2018-12-13T04:20:58.444Z,97325.13
2018-12-13T04:23:27.235Z,97328.38
2018-12-13T04:25:56.046Z,97321.91
2018-12-13T04:28:25.344Z,97320.69
2018-12-13T04:30:54.150Z,97314.62
2018-12-13T04:33:23.161Z,97315.73
2018-12-13T04:35:51.929Z,97306.44
2018-12-13T04:38:20.725Z,97310.25
2018-12-13T04:40:49.505Z,97311.77
2018-12-13T04:43:18.361Z,97311.30
2018-12-13T04:45:47.158Z,97314.34
2018-12-13T04:48:15.938Z,97309.52
2018-12-13T04:50:44.739Z,97303.28
2018-12-13T04:53:13.594Z,97307.00
2018-12-13T04:55:42.369Z,97304.25
2018-12-13T04:58:11.178Z,97300.17
2018-12-13T05:00:39.969Z,97306.45
2018-12-13T05:03:09.209Z,97300.58
2018-12-13T05:05:37.998Z,97299.78
2018-12-13T05:08:06.781Z,97298.74
2018-12-13T05:10:55.729Z,97290.95
2018-12-13T05:13:24.752Z,97287.29
2018-12-13T05:15:53.549Z,97286.61
2018-12-13T05:18:22.344Z,97292.11
2018-12-13T05:20:51.144Z,97284.83
2018-12-13T05:23:19.972Z,97285.67
2018-12-13T05:25:48.779Z,97277.55
2018-12-13T05:28:17.605Z,97283.05
2018-12-13T05:30:46.401Z,97278.55
2018-12-13T05:33:15.209Z,97275.34
2018-12-13T05:35:44.050Z,97281.02
2018-12-13T05:38:12.829Z,97276.49
2018-12-13T05:40:41.657Z,97275.08
2018-12-13T05:43:10.461Z,97268.64
2018-12-13T05:45:39.274Z,97271.99
2018-12-13T05:48:08.178Z,97270.42
2018-12-13T05:50:36.980Z,97266.03
2018-12-13T05:53:05.781Z,97262.73
2018-12-13T05:55:34.603Z,97265.20
2018-12-13T05:58:03.751Z,97269.80
2018-12-13T06:00:33.173Z,97269.70
2018-12-13T06:03:02.063Z,97264.36
2018-12-13T06:05:31.145Z,97255.51
2018-12-13T06:07:59.958Z,97260.64
2018-12-13T06:10:28.765Z,97260.48
2018-12-13T06:12:57.801Z,97261.38
2018-12-13T06:15:27.102Z,97258.02
2018-12-13T06:17:55.902Z,97258.59
2018-12-13T06:20:24.701Z,97256.55
2018-12-13T06:22:53.494Z,97265.72
2018-12-13T06:25:22.320Z,97259.17
2018-12-13T06:27:51.181Z,97256.19
2018-12-13T06:30:19.963Z,97259.64
2018-12-13T06:32:49.001Z,97261.32
2018-12-13T06:35:17.781Z,97261.84
2018-12-13T06:37:46.589Z,97253.14
2018-12-13T06:40:15.875Z,97258.22
2018-12-13T06:42:44.742Z,97260.00
2018-12-13T06:45:13.992Z,97258.63
2018-12-13T06:47:42.790Z,97254.77
2018-12-13T06:50:11.995Z,97261.27
2018-12-13T06:52:40.877Z,97259.44
2018-12-13T06:55:10.098Z,97248.70
2018-12-13T06:57:38.953Z,97255.39
2018-12-13T07:00:09.165Z,97257.80
2018-12-13T07:02:38.021Z,97256.19
2018-12-13T07:05:07.510Z,97263.52
2018-12-13T07:07:36.733Z,97249.64
2018-12-13T07:10:06.013Z,97259.91
2018-12-13T07:12:34.831Z,97257.34
2018-12-13T07:15:04.017Z,97250.54
2018-12-13T07:17:32.964Z,97253.68
2018-12-13T07:20:01.779Z,97250.59
2018-12-13T07:22:30.669Z,97255.94
2018-12-13T07:24:59.879Z,97251.64
2018-12-13T07:27:29.069Z,97250.78
2018-12-13T07:29:57.884Z,97250.85
2018-12-13T07:32:26.790Z,97256.41
2018-12-13T07:35:01.286Z,97252.09
2018-12-13T07:37:27.518Z,97253.68
2018-12-13T07:39:56.361Z,97257.50
2018-12-13T07:42:25.585Z,97256.24
2018-12-13T07:44:54.422Z,97252.69
2018-12-13T07:47:23.261Z,97255.09
2018-12-13T07:49:52.186Z,97247.66
2018-12-13T07:52:21.043Z,97241.95
2018-12-13T07:54:49.878Z,97247.66
2018-12-13T07:57:19.156Z,97245.77
2018-12-13T07:59:48.015Z,97246.55
2018-12-13T08:02:16.861Z,97245.45
2018-12-13T08:04:46.066Z,97242.11
2018-12-13T08:07:14.878Z,97247.97
2018-12-13T08:09:43.686Z,97235.09
2018-12-13T08:12:12.947Z,97242.69
2018-12-13T08:14:41.784Z,97243.20
2018-12-13T08:17:10.589Z,97249.17
2018-12-13T08:19:39.406Z,97246.88
2018-12-13T08:22:08.349Z,97246.75
2018-12-13T08:24:37.141Z,97239.42
2018-12-13T08:27:05.970Z,97245.23
2018-12-13T08:29:34.797Z,97239.78
2018-12-13T08:32:03.834Z,97243.50
2018-12-13T08:34:32.888Z,97235.86
2018-12-13T08:37:01.775Z,97231.88
2018-12-13T08:39:30.979Z,97241.04
2018-12-13T08:42:00.065Z,97245.08
2018-12-13T08:44:29.131Z,97239.27
2018-12-13T08:46:57.958Z,97241.52
2018-12-13T08:49:26.806Z,97236.28
2018-12-13T08:51:55.638Z,97229.89
2018-12-13T08:54:24.480Z,97233.19
2018-12-13T08:56:53.338Z,97231.88
2018-12-13T08:59:22.210Z,97233.84
2018-12-13T09:01:51.078Z,97221.69
2018-12-13T09:04:19.901Z,97225.25
2018-12-13T09:06:48.749Z,97222.73
2018-12-13T09:09:17.545Z,97218.05
2018-12-13T09:11:46.407Z,97214.48
2018-12-13T09:14:15.301Z,97222.66
2018-12-13T09:16:44.394Z,97223.02
2018-12-13T09:19:13.237Z,97216.38
2018-12-13T09:21:42.017Z,97218.52
2018-12-13T09:24:12.667Z,97218.20
2018-12-13T09:26:41.936Z,97221.39
2018-12-13T09:29:10.917Z,97207.57
2018-12-13T09:31:39.825Z,97210.55
2018-12-13T09:34:09.094Z,97203.54
2018-12-13T09:36:38.043Z,97215.02
2018-12-13T09:39:07.905Z,97210.61
2018-12-13T09:41:37.016Z,97203.64
2018-12-13T09:44:07.885Z,97203.86
2018-12-13T09:46:36.682Z,97191.97
2018-12-13T09:49:06.377Z,97199.20
2018-12-13T09:51:35.417Z,97197.52
2018-12-13T09:54:04.194Z,97201.55
2018-12-13T09:56:33.510Z,97187.78
2018-12-13T09:59:02.377Z,97193.17
2018-12-13T10:01:31.646Z,97189.72
2018-12-13T10:04:00.542Z,97187.46
2018-12-13T10:06:29.356Z,97184.84
2018-12-13T10:08:58.485Z,97175.46
2018-12-13T10:11:27.851Z,97182.53
2018-12-13T10:13:56.654Z,97180.64
2018-12-13T10:16:25.954Z,97176.60
2018-12-13T10:18:55.238Z,97172.20
2018-12-13T10:21:24.346Z,97172.84
2018-12-13T10:23:53.716Z,97173.46
2018-12-13T10:26:22.551Z,97170.70
2018-12-13T10:28:51.408Z,97169.87
2018-12-13T10:31:20.558Z,97164.77
2018-12-13T10:33:49.362Z,97159.75
2018-12-13T10:36:18.589Z,97161.31
2018-12-13T10:38:52.777Z,97155.23
2018-12-13T10:41:18.213Z,97150.11
2018-12-13T10:43:47.036Z,97154.77
2018-12-13T10:46:15.845Z,97145.09
2018-12-13T10:48:44.974Z,97147.77
2018-12-13T10:51:14.143Z,97143.09
2018-12-13T10:53:43.010Z,97134.39
2018-12-13T10:56:11.825Z,97135.23
2018-12-13T10:58:40.648Z,97134.83
2018-12-13T11:01:14.829Z,97129.12
2018-12-13T11:03:43.657Z,97127.48
2018-12-13T11:06:12.611Z,97133.99
2018-12-13T11:08:41.652Z,97130.36
2018-12-13T11:11:10.449Z,97127.92
2018-12-13T11:13:39.272Z,97123.41
2018-12-13T11:16:08.312Z,97125.66
2018-12-13T11:18:37.099Z,97127.63
2018-12-13T11:21:06.328Z,97123.55
2018-12-13T11:23:35.394Z,97126.97
2018-12-13T11:26:04.190Z,97128.17
2018-12-13T11:28:44.172Z,97119.63
2018-12-13T11:31:13.120Z,97121.73
2018-12-13T11:33:41.945Z,97126.03
2018-12-13T11:36:11.017Z,97121.38
2018-12-13T11:38:39.829Z,97125.55
2018-12-13T11:41:08.668Z,97115.98
2018-12-13T11:43:37.639Z,97125.77
2018-12-13T11:46:06.885Z,97119.63
2018-12-13T11:48:35.959Z,97115.34
2018-12-13T11:51:04.859Z,97109.98
2018-12-13T11:53:34.085Z,97107.34
2018-12-13T11:56:02.921Z,97122.25
2018-12-13T11:58:31.740Z,97110.83
2018-12-13T12:01:00.536Z,97114.97
2018-12-13T12:03:29.418Z,97113.08
2018-12-13T12:05:58.254Z,97111.77
2018-12-13T12:08:27.076Z,97111.92
2018-12-13T12:10:55.887Z,97108.20
2018-12-13T12:13:24.904Z,97101.08
2018-12-13T12:15:53.757Z,97107.59
2018-12-13T12:18:22.569Z,97102.61
2018-12-13T12:20:51.773Z,97095.08
2018-12-13T12:23:20.608Z,97101.15
2018-12-13T12:25:49.412Z,97100.94
2018-12-13T12:28:18.344Z,97100.35
2018-12-13T12:30:47.170Z,97092.39
2018-12-13T12:33:15.957Z,97097.22
2018-12-13T12:35:44.758Z,97097.37
2018-12-13T12:38:13.876Z,97096.31
2018-12-13T12:40:42.683Z,97090.71
2018-12-13T12:43:11.491Z,97095.95
2018-12-13T12:45:40.537Z,97095.22
2018-12-13T12:48:09.585Z,97088.67
2018-12-13T12:50:38.879Z,97085.00
2018-12-13T12:53:07.662Z,97086.89
2018-12-13T12:55:36.576Z,97092.45
2018-12-13T12:58:06.223Z,97089.48
2018-12-13T13:00:35.502Z,97087.95
2018-12-13T13:03:05.489Z,97088.09
2018-12-13T13:05:34.348Z,97087.48
2018-12-13T13:08:03.495Z,97085.22
2018-12-13T13:10:32.396Z,97080.45
2018-12-13T13:13:02.957Z,97075.80
2018-12-13T13:15:32.518Z,97080.20
2018-12-13T13:18:01.365Z,97076.67
2018-12-13T13:20:30.274Z,97074.75
2018-12-13T13:22:59.515Z,97066.09
2018-12-13T13:25:28.371Z,97076.20
2018-12-13T13:27:57.220Z,97070.84
2018-12-13T13:30:26.031Z,97072.63
2018-12-13T13:32:54.849Z,97071.80
2018-12-13T13:35:23.689Z,97071.91
2018-12-13T13:37:52.521Z,97080.86
2018-12-13T13:40:21.611Z,97078.73
2018-12-13T13:42:50.806Z,97079.55
2018-12-13T13:45:20.216Z,97072.48
2018-12-13T13:47:49.243Z,97078.70
2018-12-13T13:50:18.054Z,97072.38
2018-12-13T13:52:46.843Z,97070.70
2018-12-13T13:55:15.683Z,97073.83
2018-12-13T13:57:44.853Z,97071.94
2018-12-13T14:00:14.045Z,97070.23
2018-12-13T14:02:42.849Z,97080.23
2018-12-13T14:05:12.065Z,97075.36
2018-12-13T14:07:41.081Z,97074.30
2018-12-13T14:10:10.538Z,97078.12
2018-12-13T14:12:39.401Z,97074.42
2018-12-13T14:15:08.604Z,97070.62
2018-12-13T14:17:37.439Z,97080.66
2018-12-13T14:20:07.125Z,97072.66
2018-12-13T14:22:35.973Z,97071.83
2018-12-13T14:25:05.436Z,97075.28
2018-12-13T14:27:34.645Z,97067.93
2018-12-13T14:30:04.817Z,97068.27
2018-12-13T14:32:33.647Z,97076.26
2018-12-13T14:35:02.459Z,97080.63
2018-12-13T14:37:31.772Z,97080.52
2018-12-13T14:40:00.580Z,97083.47
2018-12-13T14:42:29.408Z,97085.03
2018-12-13T14:44:58.481Z,97084.31
2018-12-13T14:47:27.300Z,97089.44
2018-12-13T14:49:56.127Z,97095.37
2018-12-13T14:52:24.944Z,97081.80
2018-12-13T14:54:54.392Z,97090.86
2018-12-13T14:57:23.829Z,97092.02
2018-12-13T15:03:16.762Z,97083.19
2018-12-13T15:05:45.620Z,97089.95
2018-12-13T15:08:14.536Z,97091.30
2018-12-13T15:10:43.448Z,97091.52
2018-12-13T15:13:12.333Z,97094.56
2018-12-13T15:15:41.229Z,97089.00
2018-12-13T15:18:10.088Z,97083.44
2018-12-13T15:20:39.337Z,97088.64
2018-12-13T15:23:08.245Z,97092.93
2018-12-13T15:25:37.096Z,97098.86
2018-12-13T15:28:06.698Z,97096.50
2018-12-13T15:30:35.810Z,97093.73
2018-12-13T15:33:05.339Z,97091.44
2018-12-13T15:35:34.415Z,97100.79
2018-12-13T15:38:03.312Z,97102.53
2018-12-13T15:40:32.224Z,97107.80
2018-12-13T15:43:01.109Z,97101.48
2018-12-13T15:45:30.497Z,97105.30
2018-12-13T15:47:59.484Z,97108.64
2018-12-13T15:50:28.372Z,97112.48
2018-12-13T15:52:57.312Z,97112.31
2018-12-13T15:55:26.187Z,97111.70
2018-12-13T15:57:55.010Z,97120.28
2018-12-13T16:00:24.363Z,97120.23
2018-12-13T16:02:53.247Z,97121.84
2018-12-13T16:05:22.094Z,97115.51
2018-12-13T16:07:51.221Z,97114.58
2018-12-13T16:10:20.050Z,97115.98
2018-12-13T16:12:48.949Z,97119.86
2018-12-13T16:15:17.853Z,97117.15
2018-12-13T16:17:47.086Z,97114.24
2018-12-13T16:20:16.417Z,97111.48
2018-12-13T16:22:45.263Z,97118.62
2018-12-13T16:25:14.149Z,97117.84
2018-12-13T16:27:43.046Z,97117.41
2018-12-13T16:30:12.302Z,97117.25
2018-12-13T16:32:41.267Z,97124.37
2018-12-13T16:35:10.564Z,97117.83
2018-12-13T16:37:39.491Z,97114.52
2018-12-13T16:40:10.496Z,97115.72
2018-12-13T16:42:39.626Z,97113.52
2018-12-13T16:45:08.893Z,97117.77
2018-12-13T16:47:38.429Z,97109.22
2018-12-13T16:50:08.058Z,97111.73
2018-12-13T16:52:36.891Z,97107.52
2018-12-13T16:55:06.703Z,97110.60
2018-12-13T16:57:35.801Z,97108.75
2018-12-13T17:00:05.709Z,97106.77
2018-12-13T17:02:34.645Z,97101.91
2018-12-13T17:05:05.254Z,97106.92
2018-12-13T17:07:36.879Z,97106.56
2018-12-13T17:10:07.217Z,97111.26
2018-12-13T17:12:36.146Z,97110.05
2018-12-13T17:15:06.151Z,97108.93
2018-12-13T17:17:35.071Z,97109.22
2018-12-13T17:20:04.490Z,97108.17
2018-12-13T17:22:33.387Z,97105.62
2018-12-13T17:25:02.303Z,97106.71
2018-12-13T17:27:31.147Z,97106.30
2018-12-13T17:30:00.094Z,97101.62
2018-12-13T17:32:29.209Z,97102.57
2018-12-13T17:34:58.078Z,97099.87
2018-12-13T17:37:26.936Z,97100.23
2018-12-13T17:39:55.804Z,97097.66
2018-12-13T17:42:24.678Z,97105.73
2018-12-13T17:44:53.515Z,97102.34
2018-12-13T17:47:22.376Z,97106.88
2018-12-13T17:49:51.220Z,97101.02
2018-12-13T17:52:20.519Z,97102.81
2018-12-13T17:54:50.059Z,97107.20
2018-12-13T17:57:18.920Z,97107.14
2018-12-13T17:59:47.793Z,97102.48
2018-12-13T18:02:16.663Z,97113.58
2018-12-13T18:04:45.931Z,97111.80
2018-12-13T18:07:14.799Z,97116.98
2018-12-13T18:09:43.667Z,97115.84
2018-12-13T18:12:12.948Z,97123.27
2018-12-13T18:14:41.892Z,97126.84
2018-12-13T18:17:11.003Z,97122.50
2018-12-13T18:19:40.576Z,97120.40
2018-12-13T18:22:09.481Z,97124.33
2018-12-13T18:24:38.389Z,97131.97
2018-12-13T18:27:07.310Z,97134.69
2018-12-13T18:29:36.363Z,97128.57
2018-12-13T18:32:05.447Z,97131.97
2018-12-13T18:34:34.349Z,97128.98
2018-12-13T18:37:03.551Z,97125.95
2018-12-13T18:39:32.414Z,97131.70
2018-12-13T18:42:01.422Z,97127.67
2018-12-13T18:44:30.668Z,97137.88
2018-12-13T18:46:59.556Z,97141.76
2018-12-13T18:49:28.454Z,97137.57
2018-12-13T18:51:57.332Z,97150.92
2018-12-13T18:54:26.291Z,97144.95
2018-12-13T18:56:56.087Z,97148.46
2018-12-13T18:59:25.094Z,97154.38
2018-12-13T19:01:54.745Z,97150.08
2018-12-13T19:04:23.917Z,97148.20
2018-12-13T19:06:52.813Z,97147.62
2018-12-13T19:09:21.831Z,97139.77
2018-12-13T19:11:50.804Z,97151.97
2018-12-13T19:14:19.703Z,97147.94
2018-12-13T19:16:48.681Z,97155.05
2018-12-13T19:19:17.763Z,97146.52
2018-12-13T19:21:46.617Z,97151.75
2018-12-13T19:24:15.569Z,97150.40
2018-12-13T19:26:44.739Z,97153.90
2018-12-13T19:29:13.614Z,97153.80
2018-12-13T19:31:42.584Z,97154.53
2018-12-13T19:34:11.589Z,97144.06
2018-12-13T19:36:40.548Z,97161.70
2018-12-13T19:39:09.937Z,97154.33
2018-12-13T19:41:38.816Z,97162.95
2018-12-13T19:44:07.915Z,97152.38
2018-12-13T19:46:36.854Z,97145.37
2018-12-13T19:49:05.802Z,97154.31
2018-12-13T19:51:34.841Z,97150.08
2018-12-13T19:54:04.100Z,97156.20
2018-12-13T19:56:32.966Z,97157.25
2018-12-13T19:59:01.922Z,97153.64
2018-12-13T20:01:31.977Z,97154.38
2018-12-13T20:04:00.961Z,97152.58
2018-12-13T20:06:29.968Z,97148.19
2018-12-13T20:08:58.954Z,97158.19
2018-12-13T20:11:27.852Z,97159.86
2018-12-13T20:13:56.803Z,97152.11
2018-12-13T20:16:26.099Z,97162.58
2018-12-13T20:18:54.960Z,97154.30
2018-12-13T20:21:23.871Z,97153.44
2018-12-13T20:23:52.715Z,97146.92
2018-12-13T20:26:21.670Z,97159.54
2018-12-13T20:28:50.586Z,97149.17
2018-12-13T20:31:19.482Z,97159.08
2018-12-13T20:33:48.793Z,97151.58
2018-12-13T20:36:17.672Z,97151.06
2018-12-13T20:38:46.636Z,97157.24
2018-12-13T20:41:15.531Z,97152.84
2018-12-13T20:43:44.446Z,97155.20
2018-12-13T20:46:13.318Z,97156.25
2018-12-13T20:48:42.172Z,97153.01
2018-12-13T20:51:11.092Z,97152.06
2018-12-13T20:53:40.021Z,97169.81
2018-12-13T20:56:08.929Z,97172.27
2018-12-13T20:58:38.572Z,97175.16
2018-12-13T21:01:07.535Z,97163.68
2018-12-13T21:03:36.945Z,97174.83
2018-12-13T21:06:05.998Z,97175.05
2018-12-13T21:08:34.954Z,97165.63
2018-12-13T21:11:07.474Z,97174.37
2018-12-13T21:13:35.022Z,97167.81
2018-12-13T21:16:04.354Z,97163.10
2018-12-13T21:18:33.189Z,97157.72
2018-12-13T21:21:02.143Z,97156.77
2018-12-13T21:23:31.576Z,97169.75
2018-12-13T21:26:00.487Z,97157.97
2018-12-13T21:28:29.443Z,97162.58
2018-12-13T21:30:58.348Z,97163.05
2018-12-13T21:33:27.238Z,97165.46
2018-12-13T21:35:56.151Z,97163.57
2018-12-13T21:38:25.047Z,97169.55
2018-12-13T21:40:54.639Z,97159.23
2018-12-13T21:43:23.480Z,97159.28
2018-12-13T21:45:52.350Z,97168.08
2018-12-13T21:48:21.280Z,97167.56
2018-12-13T21:50:50.435Z,97164.98
2018-12-13T21:53:19.764Z,97169.34
2018-12-13T21:55:48.686Z,97170.02
2018-12-13T21:58:17.555Z,97174.99
2018-12-13T22:00:46.451Z,97175.63
2018-12-13T22:03:15.314Z,97169.44
2018-12-13T22:05:44.207Z,97167.25
2018-12-13T22:08:13.088Z,97170.59
2018-12-13T22:10:41.973Z,97174.52
2018-12-13T22:13:10.890Z,97172.32
2018-12-13T22:15:39.758Z,97175.05
2018-12-13T22:18:08.667Z,97172.27
2018-12-13T22:20:37.559Z,97181.70
2018-12-13T22:23:06.796Z,97179.59
2018-12-13T22:25:35.955Z,97178.97
2018-12-13T22:28:05.287Z,97184.94
2018-12-13T22:30:34.589Z,97187.87
2018-12-13T22:33:03.888Z,97174.05
2018-12-13T22:35:32.763Z,97182.27
2018-12-13T22:38:01.946Z,97183.47
2018-12-13T22:40:31.206Z,97175.69
2018-12-13T22:43:00.290Z,97179.28
2018-12-13T22:45:29.148Z,97175.98
2018-12-13T22:47:58.047Z,97183.10
2018-12-13T22:50:26.987Z,97185.77
2018-12-13T22:52:55.886Z,97184.56
2018-12-13T22:55:24.783Z,97190.27
2018-12-13T22:57:53.682Z,97190.44
2018-12-13T23:00:23.035Z,97187.23
2018-12-13T23:02:51.902Z,97184.00
2018-12-13T23:05:21.192Z,97192.38
2018-12-13T23:07:50.175Z,97191.80
2018-12-13T23:10:19.052Z,97193.26
2018-12-13T23:12:48.045Z,97190.69
2018-12-13T23:15:16.914Z,97185.77
2018-12-13T23:17:46.210Z,97192.27
2018-12-13T23:20:15.136Z,97189.02
2018-12-13T23:22:44.128Z,97186.14
2018-12-13T23:25:13.016Z,97189.13
2018-12-13T23:27:41.923Z,97183.94
2018-12-13T23:30:11.528Z,97194.15
2018-12-13T23:32:40.618Z,97192.22
2018-12-13T23:35:09.554Z,97193.00
2018-12-13T23:37:38.548Z,97191.16
2018-12-13T23:40:07.847Z,97189.28
2018-12-13T23:42:36.707Z,97188.08
2018-12-13T23:45:06.239Z,97183.83
2018-12-13T23:47:35.407Z,97190.06
2018-12-13T23:50:05.053Z,97182.00
2018-12-13T23:52:34.095Z,97184.00
2018-12-13T23:55:03.907Z,97189.49
2018-12-13T23:57:32.779Z,97193.84
